createdAt,value
2019-06-20T00:00:13.421Z,1008.98
2019-06-20T00:01:12.773Z,1008.92
2019-06-20T00:02:12.749Z,1009.06
2019-06-20T00:03:12.737Z,1008.98
2019-06-20T00:04:12.729Z,1009.08
2019-06-20T00:05:12.718Z,1009.02
2019-06-20T00:06:12.719Z,1009.10
2019-06-20T00:07:12.688Z,1009.01
2019-06-20T00:08:12.679Z,1009.07
2019-06-20T00:09:12.697Z,1009.07
2019-06-20T00:10:12.671Z,1009.10
2019-06-20T00:11:12.670Z,1009.00
2019-06-20T00:12:12.637Z,1009.11
2019-06-20T00:13:12.630Z,1009.09
2019-06-20T00:14:12.661Z,1009.06
2019-06-20T00:15:12.629Z,1009.03
2019-06-20T00:16:12.606Z,1009.05
2019-06-20T00:17:12.586Z,1009.07
2019-06-20T00:18:12.601Z,1009.17
2019-06-20T00:19:12.564Z,1009.10
2019-06-20T00:20:12.564Z,1009.15
2019-06-20T00:21:12.544Z,1009.07
2019-06-20T00:22:12.534Z,1009.05
2019-06-20T00:23:12.523Z,1009.08
2019-06-20T00:24:12.517Z,1009.09
2019-06-20T00:25:12.522Z,1009.05
2019-06-20T00:26:12.492Z,1009.08
2019-06-20T00:27:12.571Z,1009.06
2019-06-20T00:28:12.462Z,1009.05
2019-06-20T00:29:12.478Z,1009.09
2019-06-20T00:30:12.451Z,1009.07
2019-06-20T00:31:12.440Z,1009.02
2019-06-20T00:32:12.431Z,1009.02
2019-06-20T00:33:12.443Z,1009.12
2019-06-20T00:34:12.425Z,1009.03
2019-06-20T00:35:12.400Z,1009.09
2019-06-20T00:36:12.398Z,1009.13
2019-06-20T00:37:12.369Z,1009.10
2019-06-20T00:38:12.378Z,1009.13
2019-06-20T00:39:12.348Z,1009.15
2019-06-20T00:40:12.337Z,1009.07
2019-06-20T00:41:12.327Z,1009.15
2019-06-20T00:42:12.327Z,1009.13
2019-06-20T00:43:17.525Z,1009.15
2019-06-20T00:44:13.321Z,1009.17
2019-06-20T00:45:12.290Z,1009.08
2019-06-20T00:46:12.305Z,1009.09
2019-06-20T00:47:12.267Z,1009.12
2019-06-20T00:48:12.256Z,1009.12
2019-06-20T00:49:12.244Z,1009.16
2019-06-20T00:50:12.304Z,1009.03
2019-06-20T00:51:12.265Z,1009.02
2019-06-20T00:52:12.233Z,1009.04
2019-06-20T00:53:12.211Z,1008.95
2019-06-20T00:54:12.214Z,1009.01
2019-06-20T00:55:12.216Z,1009.01
2019-06-20T00:56:12.177Z,1009.03
2019-06-20T00:57:12.162Z,1009.03
2019-06-20T00:58:12.152Z,1009.10
2019-06-20T00:59:12.160Z,1009.07
2019-06-20T01:00:12.131Z,1008.96
2019-06-20T01:01:12.130Z,1009.05
2019-06-20T01:02:12.110Z,1009.03
2019-06-20T01:03:12.092Z,1008.99
2019-06-20T01:04:12.101Z,1008.99
2019-06-20T01:05:12.083Z,1009.04
2019-06-20T01:06:12.059Z,1009.04
2019-06-20T01:07:12.049Z,1009.04
2019-06-20T01:08:12.047Z,1008.99
2019-06-20T01:09:12.052Z,1009.09
2019-06-20T01:10:12.040Z,1009.02
2019-06-20T01:11:12.007Z,1009.06
2019-06-20T01:12:11.997Z,1009.03
2019-06-20T01:13:11.996Z,1009.05
2019-06-20T01:14:11.997Z,1009.11
2019-06-20T01:15:11.975Z,1009.09
2019-06-20T01:16:11.966Z,1009.07
2019-06-20T01:17:11.979Z,1009.06
2019-06-20T01:18:11.944Z,1009.07
2019-06-20T01:19:11.924Z,1009.11
2019-06-20T01:20:11.914Z,1009.10
2019-06-20T01:21:11.914Z,1009.03
2019-06-20T01:22:11.921Z,1009.11
2019-06-20T01:23:11.883Z,1009.14
2019-06-20T01:24:11.873Z,1009.13
2019-06-20T01:25:11.869Z,1009.10
2019-06-20T01:26:11.852Z,1009.10
2019-06-20T01:27:11.862Z,1009.08
2019-06-20T01:28:11.831Z,1009.04
2019-06-20T01:29:11.841Z,1009.09
2019-06-20T01:30:11.811Z,1009.14
2019-06-20T01:31:11.801Z,1009.05
2019-06-20T01:32:11.790Z,1009.08
2019-06-20T01:33:11.801Z,1009.18
2019-06-20T01:34:11.770Z,1009.11
2019-06-20T01:35:11.759Z,1009.14
2019-06-20T01:36:11.766Z,1009.19
2019-06-20T01:37:11.739Z,1009.18
2019-06-20T01:38:11.741Z,1009.25
2019-06-20T01:39:11.727Z,1009.20
2019-06-20T01:40:11.729Z,1009.19
2019-06-20T01:41:11.697Z,1009.27
2019-06-20T01:42:11.686Z,1009.22
2019-06-20T01:43:11.687Z,1009.20
2019-06-20T01:44:11.666Z,1009.20
2019-06-20T01:45:11.667Z,1009.21
2019-06-20T01:46:11.645Z,1009.23
2019-06-20T01:47:11.633Z,1009.24
2019-06-20T01:48:11.623Z,1009.21
2019-06-20T01:49:11.605Z,1009.19
2019-06-20T01:50:11.606Z,1009.22
2019-06-20T01:51:11.593Z,1009.19
2019-06-20T01:52:11.585Z,1009.18
2019-06-20T01:53:11.572Z,1009.16
2019-06-20T01:54:11.563Z,1009.18
2019-06-20T01:55:11.542Z,1009.16
2019-06-20T01:56:11.535Z,1009.17
2019-06-20T01:57:11.534Z,1009.17
2019-06-20T01:58:11.514Z,1009.19
2019-06-20T01:59:11.522Z,1009.25
2019-06-20T02:00:11.503Z,1009.22
2019-06-20T02:01:11.480Z,1009.26
2019-06-20T02:02:11.470Z,1009.25
2019-06-20T02:03:11.477Z,1009.28
2019-06-20T02:04:11.476Z,1009.23
2019-06-20T02:05:11.440Z,1009.24
2019-06-20T02:06:11.438Z,1009.27
2019-06-20T02:07:11.408Z,1009.34
2019-06-20T02:08:11.561Z,1009.29
2019-06-20T02:09:11.409Z,1009.29
2019-06-20T02:10:11.388Z,1009.29
2019-06-20T02:11:11.412Z,1009.26
2019-06-20T02:12:11.412Z,1009.29
2019-06-20T02:13:11.370Z,1009.23
2019-06-20T02:14:11.372Z,1009.25
2019-06-20T02:15:11.356Z,1009.30
2019-06-20T02:16:11.361Z,1009.24
2019-06-20T02:17:11.330Z,1009.24
2019-06-20T02:18:11.317Z,1009.23
2019-06-20T02:19:11.298Z,1009.20
2019-06-20T02:20:11.283Z,1009.18
2019-06-20T02:21:11.276Z,1009.26
2019-06-20T02:22:11.266Z,1009.24
2019-06-20T02:23:11.604Z,1009.28
2019-06-20T02:24:11.234Z,1009.24
2019-06-20T02:25:11.237Z,1009.28
2019-06-20T02:26:11.290Z,1009.24
2019-06-20T02:27:11.205Z,1009.22
2019-06-20T02:28:11.191Z,1009.26
2019-06-20T02:29:11.202Z,1009.26
2019-06-20T02:30:11.221Z,1009.28
2019-06-20T02:31:11.172Z,1009.27
2019-06-20T02:32:11.151Z,1009.24
2019-06-20T02:33:11.141Z,1009.28
2019-06-20T02:34:11.135Z,1009.25
2019-06-20T02:35:11.642Z,1009.28
2019-06-20T02:36:11.122Z,1009.34
2019-06-20T02:37:11.146Z,1009.33
2019-06-20T02:38:11.090Z,1009.32
2019-06-20T02:39:11.078Z,1009.28
2019-06-20T02:40:11.073Z,1009.31
2019-06-20T02:41:11.081Z,1009.36
2019-06-20T02:42:11.046Z,1009.35
2019-06-20T02:43:11.045Z,1009.38
2019-06-20T02:44:28.566Z,1009.38
2019-06-20T02:45:12.006Z,1009.33
2019-06-20T02:46:11.032Z,1009.45
2019-06-20T02:47:11.027Z,1009.43
2019-06-20T02:48:10.976Z,1009.37
2019-06-20T02:49:10.967Z,1009.40
2019-06-20T02:50:10.955Z,1009.45
2019-06-20T02:51:10.953Z,1009.34
2019-06-20T02:52:10.946Z,1009.43
2019-06-20T02:53:10.931Z,1009.40
2019-06-20T02:54:10.935Z,1009.42
2019-06-20T02:55:10.909Z,1009.45
2019-06-20T02:56:10.893Z,1009.47
2019-06-20T02:57:10.880Z,1009.40
2019-06-20T02:58:10.903Z,1009.44
2019-06-20T02:59:10.863Z,1009.45
2019-06-20T03:00:10.850Z,1009.50
2019-06-20T03:01:10.840Z,1009.45
2019-06-20T03:02:10.833Z,1009.47
2019-06-20T03:03:10.859Z,1009.52
2019-06-20T03:04:10.808Z,1009.57
2019-06-20T03:05:10.806Z,1009.52
2019-06-20T03:06:10.789Z,1009.55
2019-06-20T03:07:10.784Z,1009.50
2019-06-20T03:08:10.778Z,1009.46
2019-06-20T03:09:10.758Z,1009.45
2019-06-20T03:10:10.749Z,1009.50
2019-06-20T03:11:10.728Z,1009.49
2019-06-20T03:12:10.723Z,1009.48
2019-06-20T03:13:10.705Z,1009.57
2019-06-20T03:14:10.715Z,1009.51
2019-06-20T03:15:10.688Z,1009.50
2019-06-20T03:16:10.675Z,1009.50
2019-06-20T03:17:10.687Z,1009.59
2019-06-20T03:18:10.654Z,1009.52
2019-06-20T03:19:10.664Z,1009.49
2019-06-20T03:20:10.730Z,1009.57
2019-06-20T03:21:10.636Z,1009.51
2019-06-20T03:22:10.617Z,1009.54
2019-06-20T03:23:10.604Z,1009.54
2019-06-20T03:24:10.593Z,1009.53
2019-06-20T03:25:10.592Z,1009.53
2019-06-20T03:26:10.580Z,1009.52
2019-06-20T03:27:10.564Z,1009.52
2019-06-20T03:28:10.563Z,1009.54
2019-06-20T03:29:10.556Z,1009.58
2019-06-20T03:30:10.553Z,1009.56
2019-06-20T03:31:10.523Z,1009.55
2019-06-20T03:32:10.512Z,1009.56
2019-06-20T03:33:10.510Z,1009.62
2019-06-20T03:34:10.514Z,1009.63
2019-06-20T03:35:10.471Z,1009.60
2019-06-20T03:36:10.459Z,1009.58
2019-06-20T03:37:10.451Z,1009.64
2019-06-20T03:38:10.442Z,1009.60
2019-06-20T03:39:10.455Z,1009.63
2019-06-20T03:40:10.418Z,1009.61
2019-06-20T03:41:10.406Z,1009.56
2019-06-20T03:42:10.400Z,1009.60
2019-06-20T03:43:10.387Z,1009.55
2019-06-20T03:44:10.386Z,1009.60
2019-06-20T03:45:10.374Z,1009.59
2019-06-20T03:46:10.361Z,1009.60
2019-06-20T03:47:10.345Z,1009.54
2019-06-20T03:48:10.334Z,1009.53
2019-06-20T03:49:10.325Z,1009.59
2019-06-20T03:50:10.324Z,1009.61
2019-06-20T03:51:10.305Z,1009.61
2019-06-20T03:52:10.296Z,1009.60
2019-06-20T03:53:10.273Z,1009.57
2019-06-20T03:54:10.273Z,1009.62
2019-06-20T03:55:10.252Z,1009.61
2019-06-20T03:56:10.259Z,1009.58
2019-06-20T03:57:10.243Z,1009.57
2019-06-20T03:58:10.228Z,1009.59
2019-06-20T03:59:10.221Z,1009.62
2019-06-20T04:00:10.210Z,1009.61
2019-06-20T04:01:10.232Z,1009.68
2019-06-20T04:02:10.183Z,1009.68
2019-06-20T04:03:10.176Z,1009.64
2019-06-20T04:04:10.148Z,1009.64
2019-06-20T04:05:10.147Z,1009.66
2019-06-20T04:06:10.145Z,1009.63
2019-06-20T04:07:10.140Z,1009.66
2019-06-20T04:08:10.969Z,1009.74
2019-06-20T04:09:10.097Z,1009.69
2019-06-20T04:10:10.110Z,1009.70
2019-06-20T04:11:10.124Z,1009.64
2019-06-20T04:12:10.102Z,1009.66
2019-06-20T04:13:10.085Z,1009.65
2019-06-20T04:14:10.090Z,1009.63
2019-06-20T04:15:19.057Z,1009.66
2019-06-20T04:16:11.043Z,1009.66
2019-06-20T04:17:10.022Z,1009.64
2019-06-20T04:18:10.036Z,1009.68
2019-06-20T04:19:10.002Z,1009.63
2019-06-20T04:20:09.993Z,1009.63
2019-06-20T04:21:09.991Z,1009.59
2019-06-20T04:22:09.963Z,1009.59
2019-06-20T04:23:09.951Z,1009.63
2019-06-20T04:24:09.946Z,1009.54
2019-06-20T04:25:09.941Z,1009.60
2019-06-20T04:26:09.921Z,1009.58
2019-06-20T04:27:09.911Z,1009.63
2019-06-20T04:28:09.902Z,1009.63
2019-06-20T04:29:09.890Z,1009.56
2019-06-20T04:30:09.893Z,1009.63
2019-06-20T04:31:09.861Z,1009.60
2019-06-20T04:32:09.861Z,1009.57
2019-06-20T04:33:09.852Z,1009.63
2019-06-20T04:34:10.789Z,1009.60
2019-06-20T04:35:09.818Z,1009.59
2019-06-20T04:36:09.818Z,1009.62
2019-06-20T04:37:09.817Z,1009.65
2019-06-20T04:38:09.787Z,1009.59
2019-06-20T04:39:18.636Z,1009.58
2019-06-20T04:40:10.782Z,1009.62
2019-06-20T04:41:09.762Z,1009.65
2019-06-20T04:42:09.752Z,1009.69
2019-06-20T04:43:09.725Z,1009.71
2019-06-20T04:44:09.728Z,1009.73
2019-06-20T04:45:09.744Z,1009.67
2019-06-20T04:46:09.703Z,1009.75
2019-06-20T04:47:09.687Z,1009.70
2019-06-20T04:48:09.676Z,1009.69
2019-06-20T04:49:09.676Z,1009.71
2019-06-20T04:50:09.684Z,1009.71
2019-06-20T04:51:09.643Z,1009.74
2019-06-20T04:52:09.634Z,1009.78
2019-06-20T04:53:09.641Z,1009.75
2019-06-20T04:54:09.614Z,1009.83
2019-06-20T04:55:09.612Z,1009.78
2019-06-20T04:56:09.602Z,1009.74
2019-06-20T04:57:09.592Z,1009.76
2019-06-20T04:58:09.571Z,1009.78
2019-06-20T04:59:09.568Z,1009.77
2019-06-20T05:00:09.619Z,1009.84
2019-06-20T05:01:09.540Z,1009.77
2019-06-20T05:02:09.529Z,1009.80
2019-06-20T05:03:09.529Z,1009.81
2019-06-20T05:04:09.546Z,1009.74
2019-06-20T05:05:09.498Z,1009.81
2019-06-20T05:06:09.488Z,1009.85
2019-06-20T05:07:09.467Z,1009.77
2019-06-20T05:08:09.489Z,1009.85
2019-06-20T05:09:09.462Z,1009.84
2019-06-20T05:10:09.436Z,1009.81
2019-06-20T05:11:09.428Z,1009.90
2019-06-20T05:12:09.431Z,1009.94
2019-06-20T05:13:09.426Z,1009.90
2019-06-20T05:14:09.407Z,1009.96
2019-06-20T05:15:09.384Z,1009.90
2019-06-20T05:16:09.382Z,1009.88
2019-06-20T05:17:09.373Z,1009.98
2019-06-20T05:18:09.416Z,1009.92
2019-06-20T05:19:09.364Z,1009.95
2019-06-20T05:20:09.333Z,1009.96
2019-06-20T05:21:09.331Z,1009.99
2019-06-20T05:22:09.312Z,1009.94
2019-06-20T05:23:09.305Z,1009.95
2019-06-20T05:24:09.303Z,1009.97
2019-06-20T05:25:09.281Z,1009.97
2019-06-20T05:26:09.278Z,1009.94
2019-06-20T05:27:09.262Z,1009.96
2019-06-20T05:28:09.250Z,1009.93
2019-06-20T05:29:09.256Z,1009.99
2019-06-20T05:30:09.220Z,1009.89
2019-06-20T05:31:09.219Z,1009.93
2019-06-20T05:32:09.263Z,1009.97
2019-06-20T05:33:09.199Z,1009.95
2019-06-20T05:34:09.179Z,1009.95
2019-06-20T05:35:09.169Z,1009.98
2019-06-20T05:36:09.158Z,1009.93
2019-06-20T05:37:09.168Z,1009.94
2019-06-20T05:38:09.146Z,1009.98
2019-06-20T05:39:09.126Z,1009.94
2019-06-20T05:40:09.125Z,1009.97
2019-06-20T05:41:09.110Z,1009.98
2019-06-20T05:42:09.114Z,1009.99
2019-06-20T05:44:18.015Z,1009.93
2019-06-20T05:45:18.039Z,1009.88
2019-06-20T05:46:17.983Z,1009.87
2019-06-20T05:47:18.018Z,1009.91
2019-06-20T05:48:17.999Z,1009.80
2019-06-20T05:49:19.036Z,1009.84
2019-06-20T05:50:17.959Z,1009.89
2019-06-20T05:51:17.933Z,1009.92
2019-06-20T05:52:17.922Z,1009.91
2019-06-20T05:53:17.913Z,1009.96
2019-06-20T05:54:17.902Z,1009.95
2019-06-20T05:55:17.891Z,1009.90
2019-06-20T05:56:17.890Z,1010.01
2019-06-20T05:57:17.870Z,1009.98
2019-06-20T05:58:17.862Z,1010.01
2019-06-20T05:59:17.851Z,1009.96
2019-06-20T06:00:18.545Z,1009.98
2019-06-20T06:01:17.839Z,1010.00
2019-06-20T06:02:17.817Z,1009.99
2019-06-20T06:03:17.830Z,1009.95
2019-06-20T06:04:17.799Z,1009.99
2019-06-20T06:05:17.809Z,1010.01
2019-06-20T06:06:17.780Z,1009.97
2019-06-20T06:07:17.769Z,1010.03
2019-06-20T06:08:17.757Z,1009.90
2019-06-20T06:09:17.777Z,1009.88
2019-06-20T06:10:17.772Z,1009.93
2019-06-20T06:11:17.736Z,1009.95
2019-06-20T06:12:17.706Z,1009.92
2019-06-20T06:13:17.705Z,1009.94
2019-06-20T06:14:17.685Z,1009.94
2019-06-20T06:15:17.684Z,1009.93
2019-06-20T06:16:26.137Z,1009.97
2019-06-20T06:17:18.655Z,1009.98
2019-06-20T06:18:17.642Z,1009.98
2019-06-20T06:19:17.634Z,1010.01
2019-06-20T06:20:17.633Z,1009.99
2019-06-20T06:21:17.639Z,1009.98
2019-06-20T06:22:17.612Z,1010.01
2019-06-20T06:23:17.611Z,1010.00
2019-06-20T06:24:17.593Z,1010.02
2019-06-20T06:25:17.578Z,1010.04
2019-06-20T06:26:17.621Z,1010.00
2019-06-20T06:27:17.571Z,1010.00
2019-06-20T06:28:17.540Z,1010.04
2019-06-20T06:29:17.529Z,1010.00
2019-06-20T06:30:17.513Z,1010.02
2019-06-20T06:31:17.534Z,1010.05
2019-06-20T06:32:20.057Z,1010.04
2019-06-20T06:33:17.481Z,1010.11
2019-06-20T06:34:17.503Z,1010.08
2019-06-20T06:35:17.459Z,1010.04
2019-06-20T06:36:17.449Z,1010.05
2019-06-20T06:37:17.460Z,1010.02
2019-06-20T06:38:22.210Z,1010.08
2019-06-20T06:39:17.418Z,1010.06
2019-06-20T06:40:17.407Z,1010.15
2019-06-20T06:41:17.397Z,1010.09
2019-06-20T06:42:17.386Z,1010.12
2019-06-20T06:43:17.396Z,1010.13
2019-06-20T06:44:17.365Z,1010.20
2019-06-20T06:45:17.363Z,1010.16
2019-06-20T06:46:17.414Z,1010.20
2019-06-20T06:47:17.379Z,1010.18
2019-06-20T06:48:17.334Z,1010.16
2019-06-20T06:49:17.325Z,1010.22
2019-06-20T06:50:17.297Z,1010.19
2019-06-20T06:51:17.310Z,1010.18
2019-06-20T06:52:17.273Z,1010.21
2019-06-20T06:53:17.282Z,1010.21
2019-06-20T06:54:17.272Z,1010.19
2019-06-20T06:55:17.273Z,1010.20
2019-06-20T06:56:17.251Z,1010.24
2019-06-20T06:57:17.222Z,1010.32
2019-06-20T06:58:17.212Z,1010.27
2019-06-20T06:59:17.211Z,1010.27
2019-06-20T07:00:17.199Z,1010.27
2019-06-20T07:01:17.220Z,1010.25
2019-06-20T07:02:17.171Z,1010.28
2019-06-20T07:03:17.160Z,1010.27
2019-06-20T07:04:17.159Z,1010.28
2019-06-20T07:05:17.178Z,1010.29
2019-06-20T07:06:17.159Z,1010.26
2019-06-20T07:07:17.137Z,1010.25
2019-06-20T07:08:17.098Z,1010.23
2019-06-20T07:09:17.112Z,1010.30
2019-06-20T07:10:17.134Z,1010.25
2019-06-20T07:11:17.076Z,1010.29
2019-06-20T07:12:17.066Z,1010.31
2019-06-20T07:13:17.056Z,1010.35
2019-06-20T07:14:17.046Z,1010.37
2019-06-20T07:15:17.066Z,1010.35
2019-06-20T07:16:17.026Z,1010.38
2019-06-20T07:17:17.016Z,1010.37
2019-06-20T07:18:17.007Z,1010.40
2019-06-20T07:19:16.984Z,1010.36
2019-06-20T07:20:16.992Z,1010.45
2019-06-20T07:21:16.970Z,1010.44
2019-06-20T07:22:16.981Z,1010.36
2019-06-20T07:23:17.036Z,1010.45
2019-06-20T07:24:17.802Z,1010.40
2019-06-20T07:25:16.933Z,1010.42
2019-06-20T07:26:16.923Z,1010.42
2019-06-20T07:27:16.964Z,1010.48
2019-06-20T07:28:16.885Z,1010.45
2019-06-20T07:29:16.936Z,1010.48
2019-06-20T07:30:16.883Z,1010.46
2019-06-20T07:31:16.859Z,1010.44
2019-06-20T07:32:16.946Z,1010.51
2019-06-20T07:33:16.830Z,1010.52
2019-06-20T07:34:16.856Z,1010.48
2019-06-20T07:35:16.822Z,1010.52
2019-06-20T07:36:16.800Z,1010.49
2019-06-20T07:37:16.792Z,1010.52
2019-06-20T07:38:16.788Z,1010.53
2019-06-20T07:39:16.798Z,1010.52
2019-06-20T07:40:16.758Z,1010.54
2019-06-20T07:41:16.747Z,1010.55
2019-06-20T07:42:16.737Z,1010.57
2019-06-20T07:43:16.756Z,1010.52
2019-06-20T07:44:16.727Z,1010.58
2019-06-20T07:45:16.711Z,1010.54
2019-06-20T07:46:16.742Z,1010.52
2019-06-20T07:47:18.107Z,1010.64
2019-06-20T07:48:16.685Z,1010.58
2019-06-20T07:49:16.680Z,1010.56
2019-06-20T07:50:16.678Z,1010.53
2019-06-20T07:51:16.665Z,1010.61
2019-06-20T07:52:16.634Z,1010.57
2019-06-20T07:53:16.648Z,1010.60
2019-06-20T07:54:16.624Z,1010.61
2019-06-20T07:55:16.607Z,1010.59
2019-06-20T07:56:16.614Z,1010.65
2019-06-20T07:57:16.574Z,1010.58
2019-06-20T07:58:16.572Z,1010.68
2019-06-20T07:59:16.582Z,1010.63
2019-06-20T08:00:16.561Z,1010.65
2019-06-20T08:01:16.559Z,1010.71
2019-06-20T08:02:16.555Z,1010.64
2019-06-20T08:03:16.525Z,1010.69
2019-06-20T08:04:16.515Z,1010.62
2019-06-20T08:05:16.499Z,1010.70
2019-06-20T08:06:16.480Z,1010.67
2019-06-20T08:07:16.484Z,1010.69
2019-06-20T08:08:16.460Z,1010.69
2019-06-20T08:09:16.541Z,1010.69
2019-06-20T08:10:16.448Z,1010.64
2019-06-20T08:11:16.490Z,1010.67
2019-06-20T08:12:16.428Z,1010.66
2019-06-20T08:13:16.407Z,1010.64
2019-06-20T08:14:16.400Z,1010.62
2019-06-20T08:15:17.140Z,1010.64
2019-06-20T08:16:16.406Z,1010.67
2019-06-20T08:17:16.370Z,1010.69
2019-06-20T08:18:16.356Z,1010.60
2019-06-20T08:19:16.383Z,1010.68
2019-06-20T08:20:16.336Z,1010.67
2019-06-20T08:21:16.325Z,1010.69
2019-06-20T08:22:16.305Z,1010.68
2019-06-20T08:23:16.309Z,1010.65
2019-06-20T08:24:16.285Z,1010.77
2019-06-20T08:25:16.279Z,1010.74
2019-06-20T08:26:16.295Z,1010.73
2019-06-20T08:27:16.252Z,1010.82
2019-06-20T08:28:16.258Z,1010.71
2019-06-20T08:29:21.152Z,1010.73
2019-06-20T08:30:17.222Z,1010.76
2019-06-20T08:31:16.214Z,1010.79
2019-06-20T08:32:16.214Z,1010.80
2019-06-20T08:33:16.214Z,1010.80
2019-06-20T08:34:16.183Z,1010.81
2019-06-20T08:35:16.220Z,1010.86
2019-06-20T08:36:16.161Z,1010.85
2019-06-20T08:37:16.171Z,1010.80
2019-06-20T08:38:16.139Z,1010.91
2019-06-20T08:39:16.120Z,1010.87
2019-06-20T08:40:16.110Z,1010.92
2019-06-20T08:41:16.135Z,1010.90
2019-06-20T08:42:16.100Z,1010.94
2019-06-20T08:43:16.088Z,1010.90
2019-06-20T08:44:16.069Z,1010.95
2019-06-20T08:45:16.094Z,1010.92
2019-06-20T08:46:16.058Z,1010.95
2019-06-20T08:47:16.059Z,1010.91
2019-06-20T08:48:16.029Z,1010.97
2019-06-20T08:49:16.947Z,1010.95
2019-06-20T08:50:16.016Z,1010.90
2019-06-20T08:51:16.011Z,1010.90
2019-06-20T08:52:15.986Z,1010.98
2019-06-20T08:53:15.976Z,1010.93
2019-06-20T08:54:15.986Z,1010.96
2019-06-20T08:55:15.978Z,1010.98
2019-06-20T08:56:15.949Z,1010.90
2019-06-20T08:57:15.954Z,1010.92
2019-06-20T08:58:15.945Z,1010.87
2019-06-20T08:59:24.382Z,1010.94
2019-06-20T09:00:16.905Z,1010.88
2019-06-20T09:01:15.894Z,1010.90
2019-06-20T09:02:15.874Z,1010.97
2019-06-20T09:03:15.883Z,1010.97
2019-06-20T09:04:15.865Z,1010.93
2019-06-20T09:05:15.853Z,1011.02
2019-06-20T09:06:15.842Z,1011.02
2019-06-20T09:07:15.834Z,1011.01
2019-06-20T09:08:15.839Z,1011.06
2019-06-20T09:09:15.807Z,1010.97
2019-06-20T09:10:15.846Z,1010.96
2019-06-20T09:11:15.793Z,1010.97
2019-06-20T09:12:15.770Z,1011.04
2019-06-20T09:13:15.779Z,1011.00
2019-06-20T09:14:16.361Z,1011.05
2019-06-20T09:15:15.781Z,1011.06
2019-06-20T09:16:24.380Z,1011.11
2019-06-20T09:17:16.718Z,1011.08
2019-06-20T09:18:15.707Z,1011.10
2019-06-20T09:19:15.749Z,1011.09
2019-06-20T09:20:15.706Z,1011.09
2019-06-20T09:21:15.689Z,1011.11
2019-06-20T09:22:15.667Z,1011.16
2019-06-20T09:23:15.688Z,1011.22
2019-06-20T09:24:15.664Z,1011.07
2019-06-20T09:25:15.666Z,1011.10
2019-06-20T09:26:15.664Z,1011.11
2019-06-20T09:27:15.614Z,1011.11
2019-06-20T09:28:15.663Z,1011.10
2019-06-20T09:29:15.594Z,1011.17
2019-06-20T09:30:15.596Z,1011.15
2019-06-20T09:31:15.590Z,1011.07
2019-06-20T09:32:15.571Z,1011.09
2019-06-20T09:33:15.568Z,1011.07
2019-06-20T09:34:15.548Z,1011.09
2019-06-20T09:35:15.543Z,1011.02
2019-06-20T09:36:15.513Z,1011.11
2019-06-20T09:37:15.542Z,1011.07
2019-06-20T09:38:15.502Z,1011.10
2019-06-20T09:39:15.505Z,1011.13
2019-06-20T09:40:15.483Z,1011.04
2019-06-20T09:41:15.461Z,1011.05
2019-06-20T09:42:15.460Z,1011.02
2019-06-20T09:43:27.260Z,1011.11
2019-06-20T09:44:16.432Z,1011.04
2019-06-20T09:45:15.420Z,1011.04
2019-06-20T09:46:15.410Z,1011.07
2019-06-20T09:47:15.400Z,1011.11
2019-06-20T09:48:15.420Z,1011.04
2019-06-20T09:49:15.379Z,1011.03
2019-06-20T09:50:15.376Z,1011.00
2019-06-20T09:51:15.359Z,1011.03
2019-06-20T09:52:15.450Z,1011.05
2019-06-20T09:53:15.339Z,1011.02
2019-06-20T09:54:15.330Z,1011.03
2019-06-20T09:55:15.319Z,1010.97
2019-06-20T09:56:15.368Z,1011.00
2019-06-20T09:57:15.318Z,1011.05
2019-06-20T09:58:15.295Z,1011.10
2019-06-20T09:59:27.252Z,1011.06
2019-06-20T10:00:16.278Z,1011.08
2019-06-20T10:01:15.257Z,1011.04
2019-06-20T10:02:15.259Z,1011.10
2019-06-20T10:03:15.247Z,1011.08
2019-06-20T10:04:15.236Z,1011.11
2019-06-20T10:05:15.205Z,1011.11
2019-06-20T10:06:15.259Z,1011.20
2019-06-20T10:07:15.271Z,1011.13
2019-06-20T10:08:15.237Z,1011.12
2019-06-20T10:09:15.164Z,1011.17
2019-06-20T10:10:15.154Z,1011.11
2019-06-20T10:11:15.158Z,1011.16
2019-06-20T10:12:15.142Z,1011.22
2019-06-20T10:13:15.146Z,1011.21
2019-06-20T10:14:15.114Z,1011.17
2019-06-20T10:15:15.102Z,1011.21
2019-06-20T10:16:15.103Z,1011.20
2019-06-20T10:17:15.091Z,1011.14
2019-06-20T10:18:15.090Z,1011.20
2019-06-20T10:19:15.062Z,1011.15
2019-06-20T10:20:15.052Z,1011.21
2019-06-20T10:21:15.050Z,1011.15
2019-06-20T10:22:15.028Z,1011.20
2019-06-20T10:23:15.040Z,1011.24
2019-06-20T10:24:15.012Z,1011.24
2019-06-20T10:25:14.998Z,1011.26
2019-06-20T10:26:14.989Z,1011.31
2019-06-20T10:27:14.977Z,1011.29
2019-06-20T10:28:14.987Z,1011.34
2019-06-20T10:30:23.891Z,1011.30
2019-06-20T10:31:23.872Z,1011.27
2019-06-20T10:32:23.871Z,1011.28
2019-06-20T10:33:23.870Z,1011.28
2019-06-20T10:34:23.861Z,1011.31
2019-06-20T10:35:23.837Z,1011.29
2019-06-20T10:36:23.819Z,1011.19
2019-06-20T10:37:23.820Z,1011.27
2019-06-20T10:38:23.798Z,1011.22
2019-06-20T10:39:23.781Z,1011.23
2019-06-20T10:40:23.789Z,1011.28
2019-06-20T10:41:23.766Z,1011.30
2019-06-20T10:42:23.786Z,1011.27
2019-06-20T10:43:23.750Z,1011.31
2019-06-20T10:44:23.727Z,1011.24
2019-06-20T10:45:23.717Z,1011.27
2019-06-20T10:46:23.706Z,1011.30
2019-06-20T10:47:32.458Z,1011.25
2019-06-20T10:48:24.715Z,1011.35
2019-06-20T10:49:23.686Z,1011.37
2019-06-20T10:50:23.688Z,1011.33
2019-06-20T10:51:23.664Z,1011.37
2019-06-20T10:52:23.674Z,1011.41
2019-06-20T10:53:23.644Z,1011.27
2019-06-20T10:54:23.624Z,1011.35
2019-06-20T10:55:23.614Z,1011.41
2019-06-20T10:56:23.623Z,1011.48
2019-06-20T10:57:23.632Z,1011.53
2019-06-20T10:58:23.603Z,1011.37
2019-06-20T10:59:23.581Z,1011.37
2019-06-20T11:00:30.829Z,1011.34
2019-06-20T11:01:24.566Z,1011.45
2019-06-20T11:02:23.573Z,1011.49
2019-06-20T11:03:23.570Z,1011.51
2019-06-20T11:04:23.532Z,1011.52
2019-06-20T11:05:24.120Z,1011.43
2019-06-20T11:06:23.542Z,1011.51
2019-06-20T11:07:23.500Z,1011.52
2019-06-20T11:08:23.480Z,1011.59
2019-06-20T11:09:23.490Z,1011.61
2019-06-20T11:10:23.459Z,1011.66
2019-06-20T11:11:23.468Z,1011.63
2019-06-20T11:12:23.455Z,1011.66
2019-06-20T11:13:23.432Z,1011.68
2019-06-20T11:14:23.420Z,1011.67
2019-06-20T11:15:23.407Z,1011.66
2019-06-20T11:16:23.399Z,1011.67
2019-06-20T11:17:23.393Z,1011.72
2019-06-20T11:18:23.388Z,1011.71
2019-06-20T11:19:23.382Z,1011.78
2019-06-20T11:20:23.368Z,1011.76
2019-06-20T11:21:23.443Z,1011.82
2019-06-20T11:22:23.341Z,1011.78
2019-06-20T11:23:23.358Z,1011.73
2019-06-20T11:24:23.316Z,1011.83
2019-06-20T11:25:24.064Z,1011.81
2019-06-20T11:26:23.313Z,1011.85
2019-06-20T11:27:23.277Z,1011.88
2019-06-20T11:28:23.786Z,1011.88
2019-06-20T11:29:23.254Z,1011.80
2019-06-20T11:30:23.244Z,1011.85
2019-06-20T11:31:23.234Z,1011.81
2019-06-20T11:32:23.225Z,1011.88
2019-06-20T11:33:23.225Z,1011.86
2019-06-20T11:34:23.306Z,1011.84
2019-06-20T11:35:23.197Z,1011.89
2019-06-20T11:36:23.185Z,1011.79
2019-06-20T11:37:23.174Z,1011.91
2019-06-20T11:38:23.173Z,1011.96
2019-06-20T11:39:23.144Z,1011.98
2019-06-20T11:40:23.141Z,1011.96
2019-06-20T11:41:23.132Z,1012.05
2019-06-20T11:42:23.111Z,1012.00
2019-06-20T11:43:23.120Z,1012.03
2019-06-20T11:44:23.098Z,1012.10
2019-06-20T11:45:23.711Z,1012.08
2019-06-20T11:46:23.080Z,1012.07
2019-06-20T11:47:23.081Z,1012.10
2019-06-20T11:48:24.189Z,1012.15
2019-06-20T11:49:23.039Z,1012.13
2019-06-20T11:50:23.039Z,1012.20
2019-06-20T11:51:23.429Z,1012.15
2019-06-20T11:52:23.032Z,1012.19
2019-06-20T11:53:23.007Z,1012.19
2019-06-20T11:54:22.987Z,1012.19
2019-06-20T11:55:22.987Z,1012.17
2019-06-20T11:56:22.969Z,1012.25
2019-06-20T11:57:22.968Z,1012.21
2019-06-20T11:58:23.616Z,1012.17
2019-06-20T11:59:22.936Z,1012.26
2019-06-20T12:00:22.926Z,1012.19
2019-06-20T12:01:32.599Z,1012.25
2019-06-20T12:02:23.911Z,1012.31
2019-06-20T12:03:22.905Z,1012.28
2019-06-20T12:04:22.916Z,1012.21
2019-06-20T12:05:22.875Z,1012.24
2019-06-20T12:06:22.864Z,1012.29
2019-06-20T12:07:22.854Z,1012.25